Time;durP1;ratioP1;P1;durP2;ratioP2;P2;SDS_P1;SDS_P2;PMS_P1;PMS_P2;Temp;Humidity;BMP_temperature;BMP_pressure;BME280_temperature;BME280_humidity;BME280_pressure;Samples;Min_cycle;Max_cycle;Signal;HPM_P1;HPM_P2
2022/04/05 00:01:12;;;;;;;6.70;5.03;;;7.70;97.20;;;;;;5036584;28;20025;-65
2022/04/05 00:03:38;;;;;;;7.17;4.53;;;7.70;97.40;;;;;;5055361;28;20537;-65
2022/04/05 00:06:03;;;;;;;8.10;5.17;;;7.80;97.20;;;;;;5054723;28;20025;-64
2022/04/05 00:08:29;;;;;;;7.67;4.67;;;7.80;97.10;;;;;;5056500;28;20075;-64
2022/04/05 00:10:55;;;;;;;8.40;4.93;;;7.80;97.40;;;;;;5056183;28;20036;-65
2022/04/05 00:13:20;;;;;;;7.33;4.80;;;7.80;97.50;;;;;;5054882;28;20500;-65
2022/04/05 00:15:46;;;;;;;8.97;5.00;;;7.80;97.50;;;;;;5054335;28;20017;-65
2022/04/05 00:18:12;;;;;;;7.80;4.50;;;7.80;97.40;;;;;;5053563;28;20028;-66
2022/04/05 00:20:38;;;;;;;7.80;5.00;;;7.70;97.50;;;;;;5054113;28;20029;-65
2022/04/05 00:23:04;;;;;;;9.13;5.10;;;7.80;97.40;;;;;;5035337;28;20036;-65
2022/04/05 00:25:29;;;;;;;7.37;5.73;;;7.80;97.50;;;;;;5052805;28;20028;-65
2022/04/05 00:27:55;;;;;;;9.05;5.57;;;7.80;97.60;;;;;;5053431;28;20040;-65
2022/04/05 00:30:21;;;;;;;11.10;5.57;;;7.80;97.60;;;;;;5055057;28;20106;-65
2022/04/05 00:32:47;;;;;;;7.90;5.17;;;7.80;97.80;;;;;;5054706;28;20055;-65
2022/04/05 00:35:13;;;;;;;8.85;5.43;;;7.80;97.60;;;;;;5036498;28;20662;-65
2022/04/05 00:37:39;;;;;;;8.30;5.53;;;7.80;97.40;;;;;;5052544;28;20040;-65
2022/04/05 00:40:06;;;;;;;11.80;5.37;;;7.70;97.20;;;;;;5034653;28;20025;-65
2022/04/05 00:42:33;;;;;;;11.30;5.60;;;7.70;97.40;;;;;;5052367;28;20310;-65
2022/04/05 00:44:59;;;;;;;8.25;5.13;;;7.70;97.20;;;;;;5034603;28;20037;-65
2022/04/05 00:47:25;;;;;;;6.80;4.80;;;7.70;97.20;;;;;;5052544;28;20050;-65
2022/04/05 00:49:53;;;;;;;10.57;5.47;;;7.70;97.40;;;;;;5034083;28;20025;-65
2022/04/05 00:52:21;;;;;;;8.10;5.18;;;7.70;97.10;;;;;;5052314;28;20040;-65
2022/04/05 00:54:49;;;;;;;7.88;4.78;;;7.70;96.90;;;;;;5052599;28;20107;-65
2022/04/05 00:57:21;;;;;;;6.93;5.07;;;7.70;97.00;;;;;;5052364;28;20052;-64
2022/04/05 00:59:49;;;;;;;7.30;4.93;;;7.80;96.80;;;;;;5052252;28;20363;-64
2022/04/05 01:02:17;;;;;;;7.53;5.10;;;7.80;97.10;;;;;;5052440;28;20152;-65
2022/04/05 01:04:44;;;;;;;8.07;5.13;;;7.70;97.00;;;;;;5052853;28;20025;-65
2022/04/05 01:07:19;;;;;;;9.45;5.65;;;7.70;97.20;;;;;;5055676;28;20057;-65
2022/04/05 01:09:46;;;;;;;8.63;5.20;;;7.70;97.40;;;;;;5055669;28;20146;-65
2022/04/05 01:12:13;;;;;;;7.05;5.05;;;7.70;97.50;;;;;;5037586;28;20021;-65
2022/04/05 01:14:40;;;;;;;8.90;5.18;;;7.70;97.90;;;;;;5037526;28;20124;-65
2022/04/05 01:17:07;;;;;;;8.95;5.25;;;7.70;98.00;;;;;;5055488;28;20025;-65
2022/04/05 01:19:33;;;;;;;10.00;5.38;;;7.60;99.20;;;;;;5055512;28;20075;-65
2022/04/05 01:22:00;;;;;;;8.13;5.60;;;7.60;99.70;;;;;;5055650;28;20069;-65
2022/04/05 01:24:27;;;;;;;7.78;5.05;;;7.60;99.90;;;;;;5055405;28;20039;-65
2022/04/05 01:26:54;;;;;;;8.90;5.60;;;7.60;99.90;;;;;;5037717;28;20341;-65
2022/04/05 01:29:22;;;;;;;8.13;5.32;;;7.50;99.90;;;;;;5037377;28;20033;-65
2022/04/05 01:31:50;;;;;;;10.30;5.30;;;7.50;99.90;;;;;;5037647;28;20151;-65
2022/04/05 01:34:20;;;;;;;9.02;4.95;;;7.50;99.90;;;;;;5055630;28;20498;-65
2022/04/05 01:36:51;;;;;;;8.30;5.22;;;7.50;99.90;;;;;;5055319;28;20036;-65
2022/04/05 01:39:19;;;;;;;7.82;4.88;;;7.40;99.90;;;;;;5037484;28;20017;-65
2022/04/05 01:41:45;;;;;;;8.13;5.35;;;7.40;99.90;;;;;;5055891;28;20078;-65
2022/04/05 01:44:12;;;;;;;9.45;5.50;;;7.40;99.90;;;;;;5055399;28;20029;-65
2022/04/05 01:46:38;;;;;;;9.77;5.60;;;7.40;99.90;;;;;;5037337;28;20033;-65
2022/04/05 01:49:08;;;;;;;7.32;5.10;;;7.40;99.90;;;;;;5037101;28;20565;-65
2022/04/05 01:51:35;;;;;;;10.23;5.13;;;7.40;99.90;;;;;;5056926;28;20037;-65
2022/04/05 01:54:05;;;;;;;10.50;5.68;;;7.30;99.90;;;;;;5059582;28;20021;-65
2022/04/05 01:56:31;;;;;;;8.15;5.22;;;7.40;99.90;;;;;;5055243;28;20024;-65
2022/04/05 01:58:57;;;;;;;7.05;5.35;;;7.40;99.90;;;;;;5054715;28;20041;-65
2022/04/05 02:01:23;;;;;;;7.57;4.70;;;7.40;99.90;;;;;;5054789;28;20059;-65
2022/04/05 02:03:48;;;;;;;9.23;5.17;;;7.30;99.90;;;;;;5036879;28;20436;-65
2022/04/05 02:06:14;;;;;;;10.00;4.93;;;7.40;99.90;;;;;;5054718;28;20037;-65
2022/04/05 02:08:39;;;;;;;7.93;5.33;;;7.30;99.90;;;;;;5054525;28;20086;-66
2022/04/05 02:11:05;;;;;;;8.77;5.30;;;7.40;99.90;;;;;;5055209;28;20029;-64
2022/04/05 02:13:30;;;;;;;10.97;5.53;;;7.40;99.90;;;;;;5054790;28;20487;-64
2022/04/05 02:15:56;;;;;;;9.73;6.20;;;7.40;99.90;;;;;;5036148;28;20024;-65
2022/04/05 02:18:23;;;;;;;9.88;4.95;;;7.40;99.90;;;;;;5054199;28;20021;-64
2022/04/05 02:20:51;;;;;;;9.00;4.65;;;7.40;99.90;;;;;;5054563;28;20028;-65
2022/04/05 02:23:17;;;;;;;10.73;5.28;;;7.40;99.90;;;;;;5036469;28;20029;-64
2022/04/05 02:25:42;;;;;;;9.80;5.17;;;7.40;99.90;;;;;;5036534;28;20032;-65
2022/04/05 02:28:08;;;;;;;7.77;5.43;;;7.40;99.90;;;;;;5054168;28;20052;-65
2022/04/05 02:30:36;;;;;;;8.37;5.50;;;7.40;99.90;;;;;;5036271;28;20020;-65
2022/04/05 02:33:02;;;;;;;8.63;4.70;;;7.40;99.90;;;;;;5054237;28;20447;-64
2022/04/05 02:35:28;;;;;;;6.73;4.77;;;7.40;99.90;;;;;;5054081;28;20428;-65
2022/04/05 02:37:53;;;;;;;8.80;5.10;;;7.30;99.90;;;;;;5054113;28;20025;-65
2022/04/05 02:40:19;;;;;;;8.43;4.77;;;7.30;99.90;;;;;;5053931;28;20388;-65
2022/04/05 02:42:45;;;;;;;10.65;4.50;;;7.30;99.90;;;;;;5054004;28;20025;-64
2022/04/05 02:45:11;;;;;;;7.70;5.50;;;7.40;99.90;;;;;;5054114;28;20033;-64
2022/04/05 02:47:37;;;;;;;7.20;5.10;;;7.30;99.90;;;;;;5035854;28;20039;-64
2022/04/05 02:50:02;;;;;;;7.47;4.93;;;7.30;99.90;;;;;;5054488;28;20029;-64
2022/04/05 02:52:29;;;;;;;8.77;5.38;;;7.30;99.90;;;;;;5054064;28;20467;-64
2022/04/05 02:54:54;;;;;;;8.20;4.82;;;7.30;99.90;;;;;;5053759;28;20025;-64
2022/04/05 02:57:20;;;;;;;6.80;4.55;;;7.40;99.90;;;;;;5053792;28;20029;-64
2022/04/05 02:59:45;;;;;;;9.03;5.33;;;7.40;99.90;;;;;;5054013;28;20028;-64
2022/04/05 03:02:11;;;;;;;8.43;5.50;;;7.30;99.90;;;;;;5053902;28;20104;-64
2022/04/05 03:04:36;;;;;;;9.80;4.77;;;7.30;99.90;;;;;;5053509;28;20025;-64
2022/04/05 03:07:03;;;;;;;7.93;5.00;;;7.30;99.90;;;;;;5035698;28;20049;-65
2022/04/05 03:09:28;;;;;;;10.75;5.50;;;7.20;99.90;;;;;;5055083;28;20021;-65
2022/04/05 03:11:55;;;;;;;9.87;5.07;;;7.20;99.90;;;;;;5056380;28;20108;-65
2022/04/05 03:14:21;;;;;;;7.43;5.13;;;7.20;99.90;;;;;;5041253;28;20021;-65
2022/04/05 03:16:47;;;;;;;;;;;7.20;99.90;;;;;;5058513;28;20033;-65
2022/04/05 03:19:12;;;;;;;7.80;5.20;;;7.10;99.90;;;;;;5053973;28;19991;-65
2022/04/05 03:21:38;;;;;;;8.77;4.90;;;7.10;99.90;;;;;;5053697;28;20036;-64
2022/04/05 03:24:04;;;;;;;7.17;5.07;;;7.10;99.90;;;;;;5054208;28;20032;-64
2022/04/05 03:26:30;;;;;;;9.15;5.07;;;7.00;99.90;;;;;;5035443;28;20040;-64
2022/04/05 03:28:57;;;;;;;9.93;6.03;;;6.90;99.90;;;;;;5053456;28;20029;-64
2022/04/05 03:31:22;;;;;;;12.07;4.82;;;6.90;99.90;;;;;;5053789;28;20367;-65
2022/04/05 03:33:48;;;;;;;8.07;5.50;;;6.80;99.90;;;;;;5053001;28;20025;-65
2022/04/05 03:36:14;;;;;;;10.50;5.93;;;6.80;99.90;;;;;;5052966;28;20263;-65
2022/04/05 03:38:39;;;;;;;8.67;5.20;;;6.70;99.90;;;;;;5035051;28;20017;-65
2022/04/05 03:41:05;;;;;;;10.43;5.13;;;6.70;99.90;;;;;;5053036;28;20028;-65
2022/04/05 03:43:31;;;;;;;9.95;5.53;;;6.70;99.90;;;;;;5052808;28;20039;-65
2022/04/05 03:45:57;;;;;;;11.00;5.82;;;6.60;99.90;;;;;;5053575;28;20029;-65
2022/04/05 03:48:23;;;;;;;10.43;6.47;;;6.60;99.90;;;;;;5054435;28;20513;-63
2022/04/05 03:50:48;;;;;;;13.23;6.30;;;6.50;99.90;;;;;;5036541;28;20086;-65
2022/04/05 03:53:14;;;;;;;12.00;5.77;;;6.50;99.90;;;;;;5054078;28;20032;-63
2022/04/05 03:55:42;;;;;;;9.23;6.22;;;6.40;99.90;;;;;;5054715;28;20028;-64
2022/04/05 03:58:08;;;;;;;11.40;5.60;;;6.40;99.90;;;;;;5052729;28;20025;-63
2022/04/05 04:00:34;;;;;;;10.97;5.70;;;6.40;99.90;;;;;;5034935;28;20029;-65
2022/04/05 04:02:59;;;;;;;10.95;5.90;;;6.40;99.90;;;;;;5034828;28;20086;-63
2022/04/05 04:05:25;;;;;;;10.10;6.77;;;6.30;99.90;;;;;;5052909;28;20155;-63
2022/04/05 04:07:51;;;;;;;12.98;6.07;;;6.20;99.90;;;;;;5052620;28;20174;-62
2022/04/05 04:10:17;;;;;;;9.07;6.28;;;6.30;99.90;;;;;;5052581;28;20040;-65
2022/04/05 04:12:43;;;;;;;9.73;6.45;;;6.20;99.90;;;;;;5052545;28;20026;-63
2022/04/05 04:15:09;;;;;;;11.43;6.82;;;6.10;99.90;;;;;;5034700;28;20025;-65
2022/04/05 04:17:35;;;;;;;11.18;7.53;;;6.10;99.90;;;;;;5052636;28;20029;-64
2022/04/05 04:20:00;;;;;;;11.07;6.17;;;6.00;99.90;;;;;;5053388;28;20438;-64
2022/04/05 04:22:29;;;;;;;12.93;6.93;;;6.10;99.90;;;;;;5052506;28;20430;-64
2022/04/05 04:24:57;;;;;;;10.40;6.50;;;6.10;99.90;;;;;;5035136;28;20112;-64
2022/04/05 04:27:24;;;;;;;12.05;6.95;;;6.10;99.90;;;;;;5077374;23;20029;-68
2022/04/05 04:29:50;;;;;;;9.40;6.22;;;6.10;99.90;;;;;;5040244;28;20028;-66
2022/04/05 04:32:15;;;;;;;9.90;6.60;;;6.10;99.90;;;;;;5035133;28;20022;-65
2022/04/05 04:34:41;;;;;;;10.30;6.60;;;6.10;99.90;;;;;;5052945;28;20029;-65
2022/04/05 04:37:07;;;;;;;9.65;6.38;;;6.10;99.90;;;;;;5052808;28;20048;-65
2022/04/05 04:39:33;;;;;;;11.50;6.13;;;6.10;99.90;;;;;;5053986;28;20467;-66
2022/04/05 04:42:00;;;;;;;10.60;6.30;;;6.10;99.90;;;;;;5058112;28;20025;-69
2022/04/05 04:44:26;;;;;;;8.88;5.97;;;6.10;99.90;;;;;;5058611;28;20087;-67
2022/04/05 04:46:52;;;;;;;;;;;6.20;99.90;;;;;;5041842;28;20119;-73
2022/04/05 04:49:17;;;;;;;11.50;6.40;;;6.20;99.90;;;;;;5058381;28;19948;-68
2022/04/05 04:51:43;;;;;;;10.07;7.13;;;6.10;99.90;;;;;;5059355;28;20039;-67
2022/04/05 04:54:09;;;;;;;10.77;6.43;;;6.10;99.90;;;;;;5039530;28;20394;-68
2022/04/05 04:56:34;;;;;;;10.53;7.80;;;6.10;99.90;;;;;;5038916;28;20029;-68
2022/04/05 04:59:00;;;;;;;11.20;6.77;;;6.10;99.90;;;;;;5056719;28;20025;-67
2022/04/05 05:01:26;;;;;;;10.00;6.30;;;6.10;99.90;;;;;;5056508;28;20024;-66
2022/04/05 05:03:51;;;;;;;10.40;6.40;;;6.10;99.90;;;;;;5058199;28;20044;-67
2022/04/05 05:06:17;;;;;;;9.80;6.23;;;6.20;99.90;;;;;;5058716;28;20058;-68
2022/04/05 05:08:43;;;;;;;9.25;6.50;;;6.10;99.90;;;;;;5038799;28;20509;-68
2022/04/05 05:11:10;;;;;;;10.33;6.37;;;6.10;99.90;;;;;;5056767;28;20467;-67
2022/04/05 05:13:36;;;;;;;11.80;7.03;;;6.10;99.90;;;;;;5038249;28;20871;-67
2022/04/05 05:16:03;;;;;;;11.55;6.47;;;6.10;99.90;;;;;;5056405;28;20021;-67
2022/04/05 05:18:29;;;;;;;11.00;6.90;;;6.10;99.90;;;;;;5056239;28;20029;-68
2022/04/05 05:20:55;;;;;;;10.95;6.10;;;6.10;99.90;;;;;;5056788;28;20071;-68
2022/04/05 05:23:21;;;;;;;10.10;6.80;;;6.10;99.90;;;;;;5038507;28;20029;-68
2022/04/05 05:25:47;;;;;;;11.35;6.72;;;6.10;99.90;;;;;;5038488;28;20043;-68
2022/04/05 05:28:13;;;;;;;;;;;6.10;99.90;;;;;;5057225;28;20036;-67
2022/04/05 05:30:39;;;;;;;11.43;6.57;;;6.10;99.90;;;;;;5056518;28;19992;-67
2022/04/05 05:33:05;;;;;;;13.15;7.00;;;6.10;99.90;;;;;;5056645;28;20051;-67
2022/04/05 05:35:31;;;;;;;8.88;5.97;;;6.10;99.90;;;;;;5038634;28;20108;-67
2022/04/05 05:37:56;;;;;;;10.13;6.50;;;6.10;99.90;;;;;;5055984;28;20028;-68
2022/04/05 05:40:23;;;;;;;11.93;7.20;;;6.10;99.90;;;;;;5038800;28;20032;-68
2022/04/05 05:43:01;;;;;;;11.80;7.18;;;6.10;99.90;;;;;;5056348;28;20029;-69
2022/04/05 05:45:27;;;;;;;11.82;7.32;;;6.10;99.90;;;;;;5055972;28;20033;-69
2022/04/05 05:47:53;;;;;;;14.25;7.50;;;6.10;99.90;;;;;;5055916;28;20032;-69
2022/04/05 05:50:19;;;;;;;12.30;6.60;;;6.10;99.90;;;;;;5055532;28;20108;-68
2022/04/05 05:52:46;;;;;;;13.50;8.27;;;6.10;99.90;;;;;;5054188;28;20479;-68
2022/04/05 05:55:15;;;;;;;17.05;10.30;;;6.10;99.90;;;;;;5055842;28;20053;-68
2022/04/05 05:57:41;;;;;;;11.02;7.50;;;6.10;99.90;;;;;;5055582;28;20021;-67
2022/04/05 06:00:09;;;;;;;11.32;6.80;;;6.10;99.90;;;;;;5037474;28;20025;-68
2022/04/05 06:02:39;;;;;;;10.60;6.60;;;6.10;99.90;;;;;;5055240;28;20088;-68
2022/04/05 06:05:06;;;;;;;14.05;7.28;;;6.10;99.90;;;;;;5055528;28;20025;-68
2022/04/05 06:07:32;;;;;;;;;;;6.10;99.90;;;;;;5037751;28;20021;-68
2022/04/05 06:09:57;;;;;;;9.50;6.70;;;6.20;99.90;;;;;;5037522;28;19905;-69
2022/04/05 06:12:23;;;;;;;12.63;7.13;;;6.20;99.90;;;;;;5037180;28;20395;-69
2022/04/05 06:14:49;;;;;;;11.43;6.63;;;6.20;99.90;;;;;;5056236;28;20391;-69
2022/04/05 06:17:15;;;;;;;10.02;6.35;;;6.20;99.90;;;;;;5054993;28;20032;-67
2022/04/05 06:19:41;;;;;;;13.77;7.73;;;6.20;99.90;;;;;;5037265;28;20021;-69
2022/04/05 06:22:06;;;;;;;11.93;7.10;;;6.20;99.90;;;;;;5036944;28;20070;-69
2022/04/05 06:24:32;;;;;;;11.63;7.63;;;6.30;99.90;;;;;;5054966;28;20025;-68
2022/04/05 06:26:57;;;;;;;10.63;6.57;;;6.30;99.90;;;;;;5055109;28;20102;-69
2022/04/05 06:29:23;;;;;;;12.27;6.47;;;6.30;99.90;;;;;;5054804;28;20044;-68
2022/04/05 06:31:48;;;;;;;12.50;7.50;;;6.20;99.90;;;;;;5054673;28;20031;-68
2022/04/05 06:34:14;;;;;;;11.43;7.40;;;6.20;99.90;;;;;;5054649;28;20552;-67
2022/04/05 06:36:40;;;;;;;13.40;7.13;;;6.30;99.90;;;;;;5054518;28;20043;-67
2022/04/05 06:39:07;;;;;;;9.30;6.50;;;6.30;99.90;;;;;;5056435;28;20021;-67
2022/04/05 06:41:33;;;;;;;9.75;6.78;;;6.30;99.90;;;;;;5040156;28;20025;-67
2022/04/05 06:43:58;;;;;;;11.17;6.63;;;6.30;99.90;;;;;;5054723;28;20479;-68
2022/04/05 06:46:24;;;;;;;11.93;6.57;;;6.30;99.90;;;;;;5055135;28;20274;-67
2022/04/05 06:48:50;;;;;;;9.53;7.57;;;6.30;99.90;;;;;;5055288;28;20025;-67
2022/04/05 06:51:15;;;;;;;11.27;6.73;;;6.40;99.90;;;;;;5054858;28;20049;-68
2022/04/05 06:53:41;;;;;;;13.13;7.40;;;6.40;99.90;;;;;;5054510;28;20029;-68
2022/04/05 06:56:09;;;;;;;9.45;6.90;;;6.40;99.90;;;;;;5054186;28;20028;-67
2022/04/05 06:58:34;;;;;;;10.57;7.20;;;6.50;99.90;;;;;;5054449;28;20108;-68
2022/04/05 07:01:00;;;;;;;11.10;6.63;;;6.60;99.90;;;;;;5054754;28;20098;-67
2022/04/05 07:03:25;;;;;;;8.73;6.13;;;6.70;99.90;;;;;;5054587;28;20028;-67
2022/04/05 07:05:51;;;;;;;12.67;6.80;;;6.80;99.90;;;;;;5054491;28;20025;-67
2022/04/05 07:08:17;;;;;;;12.17;6.40;;;6.80;99.90;;;;;;5054005;28;20029;-67
2022/04/05 07:10:42;;;;;;;12.40;6.23;;;6.80;99.90;;;;;;5036282;28;20267;-67
2022/04/05 07:13:08;;;;;;;11.47;6.17;;;6.90;99.90;;;;;;5054273;28;20025;-67
2022/04/05 07:15:34;;;;;;;11.10;6.68;;;6.90;99.90;;;;;;5053944;28;20032;-67
2022/04/05 07:18:00;;;;;;;14.20;6.28;;;7.00;99.90;;;;;;5036393;28;20021;-66
2022/04/05 07:20:25;;;;;;;8.27;5.43;;;7.00;99.90;;;;;;5035724;28;20483;-67
2022/04/05 07:22:51;;;;;;;8.93;5.90;;;7.00;99.90;;;;;;5035849;28;20098;-67
2022/04/05 07:25:20;;;;;;;9.20;5.27;;;7.00;99.90;;;;;;5036106;28;20029;-67
2022/04/05 07:27:47;;;;;;;11.68;6.68;;;7.10;99.90;;;;;;5053534;28;20072;-66
2022/04/05 07:30:13;;;;;;;10.70;6.43;;;7.00;99.90;;;;;;5054010;28;20029;-67
2022/04/05 07:32:44;;;;;;;13.40;6.60;;;6.90;99.90;;;;;;5053585;28;20036;-68
2022/04/05 07:35:11;;;;;;;10.32;6.22;;;6.90;99.90;;;;;;5053394;28;20021;-68
2022/04/05 07:37:37;;;;;;;13.15;6.82;;;6.90;99.90;;;;;;5035501;28;20028;-67
2022/04/05 07:40:10;;;;;;;10.60;6.93;;;6.90;99.90;;;;;;5053881;28;20127;-67
2022/04/05 07:42:37;;;;;;;13.25;6.45;;;6.90;99.90;;;;;;5035577;28;20048;-67
2022/04/05 07:45:04;;;;;;;9.07;6.45;;;6.90;99.90;;;;;;5035633;28;20458;-68
2022/04/05 07:47:30;;;;;;;13.85;6.60;;;6.90;99.90;;;;;;5054089;28;20028;-69
2022/04/05 07:49:55;;;;;;;12.07;6.60;;;6.80;99.90;;;;;;5054538;28;20029;-67
2022/04/05 07:52:21;;;;;;;11.13;6.80;;;6.80;99.90;;;;;;5053064;28;20021;-67
2022/04/05 07:54:47;;;;;;;12.57;7.23;;;6.80;99.90;;;;;;5036195;28;20120;-67
2022/04/05 07:57:13;;;;;;;11.35;6.65;;;6.90;99.90;;;;;;5053225;28;20033;-67
2022/04/05 07:59:40;;;;;;;10.47;6.37;;;6.90;99.90;;;;;;5035423;28;20037;-67
2022/04/05 08:02:06;;;;;;;11.50;6.57;;;6.90;99.90;;;;;;5053406;28;20021;-68
2022/04/05 08:04:31;;;;;;;14.57;6.78;;;7.00;99.90;;;;;;5053646;28;20491;-68
2022/04/05 08:06:57;;;;;;;14.50;6.77;;;7.00;99.90;;;;;;5052974;28;20055;-68
2022/04/05 08:09:22;;;;;;;9.63;6.03;;;7.10;99.90;;;;;;5053405;28;20441;-67
2022/04/05 08:11:48;;;;;;;20.17;7.07;;;7.10;99.90;;;;;;5053278;28;20513;-67
2022/04/05 08:14:14;;;;;;;15.75;6.43;;;7.10;99.90;;;;;;5053300;28;20399;-67
2022/04/05 08:16:40;;;;;;;11.63;6.72;;;7.10;99.90;;;;;;5057628;28;20064;-67
2022/04/05 08:19:06;;;;;;;10.40;6.83;;;7.10;99.90;;;;;;5060093;28;20021;-68
2022/04/05 08:21:33;;;;;;;9.68;6.10;;;7.20;99.90;;;;;;5060238;28;20021;-67
2022/04/05 08:23:58;;;;;;;10.20;6.75;;;7.20;99.90;;;;;;5057618;28;20025;-68
2022/04/05 08:26:24;;;;;;;13.57;6.17;;;7.20;99.90;;;;;;5039210;28;20036;-68
2022/04/05 08:28:50;;;;;;;9.63;5.77;;;7.20;99.90;;;;;;5057052;28;20359;-68
2022/04/05 08:31:18;;;;;;;8.98;5.65;;;7.20;99.90;;;;;;5039334;28;20040;-68
2022/04/05 08:33:44;;;;;;;10.35;6.35;;;7.20;99.90;;;;;;5056815;28;20029;-68
2022/04/05 08:36:10;;;;;;;9.52;6.10;;;7.20;99.90;;;;;;5056762;28;20082;-67
2022/04/05 08:38:36;;;;;;;9.13;5.87;;;7.20;99.90;;;;;;5057448;28;20033;-67
2022/04/05 08:41:04;;;;;;;12.68;6.18;;;7.30;99.90;;;;;;5057056;28;20024;-67
2022/04/05 08:43:30;;;;;;;11.00;5.72;;;7.30;99.90;;;;;;5057582;28;20437;-68
2022/04/05 08:46:00;;;;;;;8.67;5.63;;;7.30;99.90;;;;;;5057281;28;20032;-68
2022/04/05 08:48:28;;;;;;;11.10;6.43;;;7.40;99.90;;;;;;5057036;28;20108;-67
2022/04/05 08:50:54;;;;;;;10.23;6.30;;;7.40;99.90;;;;;;5058384;28;20029;-68
2022/04/05 08:53:20;;;;;;;;;;;7.40;99.90;;;;;;5040599;28;20067;-68
2022/04/05 08:55:46;;;;;;;19.23;6.78;;;7.40;99.90;;;;;;5039798;28;19909;-68
2022/04/05 08:58:16;;;;;;;12.63;7.07;;;7.40;99.90;;;;;;5056936;28;20088;-68
2022/04/05 09:00:42;;;;;;;12.90;7.13;;;7.50;99.90;;;;;;5057853;28;20024;-67
2022/04/05 09:03:07;;;;;;;12.73;7.15;;;7.50;99.90;;;;;;5057431;28;20495;-67
2022/04/05 09:05:34;;;;;;;14.98;8.05;;;7.60;99.90;;;;;;5057284;28;20075;-67
2022/04/05 09:08:22;;;;;;;10.52;5.65;;;7.60;99.90;;;;;;5060935;28;20148;-68
2022/04/05 09:11:08;;;;;;;11.95;6.55;;;7.60;99.90;;;;;;5060591;28;20036;-67
2022/04/05 09:13:35;;;;;;;10.47;6.20;;;7.60;99.90;;;;;;5056580;28;20549;-68
2022/04/05 09:16:04;;;;;;;10.27;6.13;;;7.60;99.90;;;;;;5056031;28;20025;-68
2022/04/05 09:18:42;;;;;;;17.00;9.60;;;7.70;99.90;;;;;;5055643;28;20017;-66
2022/04/05 09:21:09;;;;;;;10.07;6.40;;;7.70;99.90;;;;;;5038184;28;20025;-66
2022/04/05 09:23:41;;;;;;;16.60;9.73;;;7.70;99.90;;;;;;5038002;28;20029;-67
2022/04/05 09:26:15;;;;;;;13.93;6.93;;;7.70;99.90;;;;;;5037734;28;20025;-67
2022/04/05 09:28:50;;;;;;;15.70;7.45;;;7.70;99.90;;;;;;5038023;28;20372;-67
2022/04/05 09:31:19;;;;;;;14.25;7.95;;;7.80;99.90;;;;;;5055832;28;20032;-67
2022/04/05 09:34:12;;;;;;;12.05;6.72;;;7.80;99.90;;;;;;5055845;28;20117;-67
2022/04/05 09:36:41;;;;;;;24.10;6.35;;;7.90;99.90;;;;;;5055776;28;20024;-67
2022/04/05 09:39:25;;;;;;;9.30;5.68;;;7.90;99.90;;;;;;5055636;28;20013;-66
2022/04/05 09:42:07;;;;;;;35.47;16.02;;;7.90;99.90;;;;;;5056260;28;20502;-66
2022/04/05 09:44:38;;;;;;;13.90;8.45;;;8.00;99.90;;;;;;5039192;28;20033;-67
2022/04/05 09:47:14;;;;;;;12.43;6.53;;;8.00;99.90;;;;;;5043898;28;20029;-68
2022/04/05 09:49:41;;;;;;;11.88;6.07;;;8.00;99.90;;;;;;5043646;28;20414;-69
2022/04/05 09:52:31;;;;;;;16.88;6.15;;;8.10;99.90;;;;;;5056372;28;20021;-68
2022/04/05 09:55:09;;;;;;;12.43;6.50;;;8.20;99.90;;;;;;5055647;28;20100;-68
2022/04/05 09:57:36;;;;;;;10.23;6.10;;;8.10;99.90;;;;;;5055530;28;20382;-68
2022/04/05 10:00:11;;;;;;;15.70;6.60;;;8.20;99.90;;;;;;5039720;28;20021;-68
2022/04/05 10:03:03;;;;;;;23.40;7.82;;;8.30;99.90;;;;;;5056876;28;20048;-68
2022/04/05 10:05:30;;;;;;;9.25;5.65;;;8.30;99.90;;;;;;5056982;28;20104;-68
2022/04/05 10:07:56;;;;;;;12.75;6.10;;;8.40;99.90;;;;;;5055629;28;20017;-66
2022/04/05 10:10:21;;;;;;;12.65;6.65;;;8.40;99.90;;;;;;5055511;28;20029;-66
2022/04/05 10:12:48;;;;;;;16.92;6.30;;;8.40;99.90;;;;;;5055053;28;20032;-67
2022/04/05 10:15:13;;;;;;;12.25;6.07;;;8.40;99.90;;;;;;5055011;28;20025;-66
2022/04/05 10:17:45;;;;;;;7.73;5.10;;;8.50;99.90;;;;;;5054971;28;20021;-67
2022/04/05 10:20:12;;;;;;;8.55;6.10;;;8.50;99.90;;;;;;5055191;28;20013;-67
2022/04/05 10:22:40;;;;;;;;;;;8.50;99.90;;;;;;5055944;28;20074;-67
2022/04/05 10:25:08;;;;;;;11.75;5.90;;;8.50;99.90;;;;;;5040454;28;19904;-67
2022/04/05 10:27:34;;;;;;;13.45;6.60;;;8.60;99.90;;;;;;5037169;28;20037;-68
2022/04/05 10:29:59;;;;;;;9.98;5.28;;;8.60;99.90;;;;;;5036542;28;20480;-68
2022/04/05 10:32:37;;;;;;;10.93;5.43;;;8.60;99.90;;;;;;5035970;28;20124;-67
2022/04/05 10:35:07;;;;;;;13.57;5.65;;;8.50;99.90;;;;;;5036032;28;20029;-68
2022/04/05 10:37:37;;;;;;;8.88;5.55;;;8.50;99.90;;;;;;5039771;23;1094745;-66
2022/04/05 10:40:03;;;;;;;10.85;5.85;;;8.60;99.90;;;;;;5054937;28;20086;-66
2022/04/05 10:42:36;;;;;;;12.93;5.87;;;8.60;99.90;;;;;;5054736;28;20025;-66
2022/04/05 10:45:33;;;;;;;11.02;5.97;;;8.70;99.90;;;;;;5037037;28;20435;-66
2022/04/05 10:48:00;;;;;;;9.13;5.45;;;8.60;99.90;;;;;;4958167;28;20518;-65
2022/04/05 10:50:27;;;;;;;11.20;5.80;;;8.70;99.90;;;;;;4973832;28;20074;-67
2022/04/05 10:53:21;;;;;;;8.38;5.65;;;8.70;99.90;;;;;;4973421;28;20035;-66
2022/04/05 10:56:08;;;;;;;10.43;5.18;;;8.70;99.90;;;;;;4957422;28;20556;-67
2022/04/05 10:58:38;;;;;;;9.65;5.20;;;8.80;99.90;;;;;;4973613;28;20090;-66
2022/04/05 11:01:22;;;;;;;9.68;5.47;;;8.80;99.90;;;;;;4973626;28;20062;-66
2022/04/05 11:04:09;;;;;;;10.50;5.63;;;8.80;99.90;;;;;;4973420;28;20030;-66
2022/04/05 11:07:02;;;;;;;10.47;6.63;;;8.80;99.90;;;;;;4973478;28;20037;-67
2022/04/05 11:09:30;;;;;;;8.45;5.32;;;8.90;99.90;;;;;;4957072;28;20026;-67
2022/04/05 11:11:59;;;;;;;11.60;5.97;;;8.90;99.90;;;;;;4973407;28;20525;-67
2022/04/05 11:14:43;;;;;;;11.18;5.43;;;9.00;99.90;;;;;;4973550;28;20030;-67
2022/04/05 11:17:12;;;;;;;7.88;5.13;;;9.00;99.90;;;;;;4956679;28;20058;-65
2022/04/05 11:19:40;;;;;;;10.00;5.80;;;9.10;99.90;;;;;;4956682;28;20018;-66
2022/04/05 11:22:35;;;;;;;22.80;6.28;;;9.10;99.90;;;;;;4972600;28;20022;-66
2022/04/05 11:25:09;;;;;;;10.68;6.38;;;9.10;99.90;;;;;;5040157;28;20059;-67
2022/04/05 11:27:45;;;;;;;10.27;5.40;;;9.30;99.90;;;;;;5057098;28;20079;-66
2022/04/05 11:30:23;;;;;;;18.15;5.75;;;9.40;99.90;;;;;;5053294;28;20017;-67
2022/04/05 11:33:08;;;;;;;10.38;5.15;;;9.50;99.90;;;;;;5053493;28;20021;-67
2022/04/05 11:35:35;;;;;;;10.30;5.95;;;9.60;99.90;;;;;;5034869;28;20053;-67
2022/04/05 11:38:02;;;;;;;8.73;5.45;;;9.50;99.90;;;;;;5052822;28;20028;-67
2022/04/05 11:40:30;;;;;;;18.10;5.72;;;9.50;99.90;;;;;;5053204;28;20058;-67
2022/04/05 11:43:01;;;;;;;10.85;5.28;;;9.60;99.90;;;;;;5034898;28;20119;-67
2022/04/05 11:45:28;;;;;;;22.38;6.25;;;9.60;99.90;;;;;;5034774;28;20090;-66
2022/04/05 11:47:54;;;;;;;19.38;5.47;;;9.70;99.90;;;;;;5052987;28;20055;-67
2022/04/05 11:50:21;;;;;;;9.70;5.38;;;9.70;99.90;;;;;;5053066;28;20025;-68
2022/04/05 11:52:46;;;;;;;12.18;5.65;;;9.60;99.90;;;;;;5052797;28;20352;-69
2022/04/05 11:58:03;;;;;;;11.45;5.38;;;9.60;99.90;;;;;;5052990;28;20032;-67
2022/04/05 12:00:29;;;;;;;10.88;5.13;;;9.60;99.90;;;;;;5053776;28;20410;-67
2022/04/05 12:03:06;;;;;;;7.75;5.55;;;9.60;99.90;;;;;;5053744;28;20454;-67
2022/04/05 12:05:46;;;;;;;9.60;5.57;;;9.60;99.90;;;;;;5036719;28;20025;-66
2022/04/05 12:08:13;;;;;;;10.30;5.63;;;9.60;99.90;;;;;;5053359;28;20029;-67
2022/04/05 12:10:44;;;;;;;9.52;5.47;;;9.70;99.90;;;;;;5053418;28;20116;-68
2022/04/05 12:13:10;;;;;;;11.98;6.05;;;9.80;99.90;;;;;;5034806;28;20021;-68
2022/04/05 12:15:37;;;;;;;15.50;5.53;;;9.80;99.90;;;;;;5035829;28;20036;-67
2022/04/05 12:18:17;;;;;;;10.65;5.43;;;9.90;99.90;;;;;;5052512;28;20025;-66
2022/04/05 12:20:57;;;;;;;7.60;5.00;;;9.80;99.90;;;;;;5053017;28;20403;-67
2022/04/05 12:23:24;;;;;;;9.95;4.88;;;9.80;99.90;;;;;;5052800;28;20083;-68
2022/04/05 12:26:09;;;;;;;8.32;5.55;;;9.80;99.90;;;;;;5052826;28;20074;-68
2022/04/05 12:28:43;;;;;;;12.40;5.28;;;9.80;99.90;;;;;;5034793;28;20048;-67
2022/04/05 12:31:12;;;;;;;7.95;5.03;;;9.80;99.90;;;;;;5052683;28;20028;-67
2022/04/05 12:33:41;;;;;;;11.25;4.63;;;9.80;99.90;;;;;;5052887;28;20032;-67
2022/04/05 12:36:08;;;;;;;12.00;5.60;;;9.90;99.90;;;;;;5034655;28;20074;-69
2022/04/05 12:38:34;;;;;;;10.50;5.15;;;9.90;99.90;;;;;;5053570;28;20367;-67
2022/04/05 12:41:03;;;;;;;9.05;5.32;;;9.80;99.90;;;;;;5053140;28;20051;-68
2022/04/05 12:43:29;;;;;;;14.55;5.43;;;9.80;99.90;;;;;;5052932;28;20104;-68
2022/04/05 12:45:55;;;;;;;8.57;4.82;;;9.80;99.90;;;;;;5052941;28;20564;-70
2022/04/05 12:48:22;;;;;;;14.57;5.43;;;9.90;99.90;;;;;;5052562;28;20025;-69
2022/04/05 12:50:50;;;;;;;10.13;4.82;;;9.90;99.90;;;;;;5034432;28;20025;-68
2022/04/05 12:53:27;;;;;;;9.48;4.65;;;9.90;99.90;;;;;;5052782;28;20087;-69
2022/04/05 12:56:02;;;;;;;10.23;5.32;;;10.00;99.90;;;;;;5052713;28;20021;-70
2022/04/05 12:58:45;;;;;;;9.70;4.93;;;10.20;99.90;;;;;;5053108;28;20083;-68
2022/04/05 13:01:24;;;;;;;9.38;4.80;;;10.40;99.90;;;;;;5054045;28;20037;-69